首页
METAR-TAF:

METAR-TAF

机场 :

Altus Air Force Base

Altus, 奧克拉荷馬州, 美国

纬度: 34-39N, 经度: 099-16W, 海拔: 420米

当前天气观测

该预报发布于19分钟前的00:55 UTC
风速20节,风向南转南东,有时为25节阵风
温度 32°C
湿度 49%
气压 1003 hPa
能見度: 16.1公里
天空无云

METAR: KLTS 210055Z AUTO 15020G25KT 10SM CLR 32/20 A2963 RMK AO2 PK WND 16027/11 SLP017 T03240196 $

时间: 20:14 (01:14 UTC)

预报

该预报发布于16小时和14分钟前的09:00 UTC
预报有效从20日的 09点(UTC)到 21日的 15点(UTC)
风速15节,风向南转南东
能见度10公里或以上
天空无云
成为
从 20日的 13点(UTC)到 20日的 14点(UTC)
风速15节,风向南转西南,有时为25节阵风
能见度10公里或以上
少量云层高于6000英尺
散云层高于20000英尺
成为
从 20日的 23点(UTC)到 20日的 24点(UTC)
风速12节,风向南转南东
能见度10公里或以上
散云层高于20000英尺
成为
从 21日的 05点(UTC)到 21日的 06点(UTC)
风速12节,风向南转南东
能见度10公里或以上
少量云层高于20000英尺
成为
从 21日的 11点(UTC)到 21日的 12点(UTC)
风速9节,风向南转西南
能见度10公里或以上
天空无云

TAF: KLTS 200900Z 2009/2115 15015KT 9999 SKC QNH2967INS BECMG 2013/2014 21015G25KT 9999 FEW060 SCT200 QNH2970INS BECMG 2023/2024 15012KT 9999 SCT200 510104 QNH2964INS BECMG 2105/2106 16012KT 9999 FEW200 WS020/20045KT QNH2965INS BECMG 2111/2112 20009KT 9999 SKC QNH2970INS TX37/2021Z TN21/2012Z

超过4000个机场的气象观测和天气预报(METAR&TAF报告)。

可查询的气象台以黄色和红色小点在地图上表示。

将鼠标移到小点上方,可查看气象台名称。

然后点击查看天气观测和预报。

如需切换地图:点击带黑十字的绿色按钮放大地图;点击带横线的绿色按钮缩小地图;或者点击绿色箭头查看邻近地区的地图。


METAR-TAF: